createdAt,value
2023-04-04T00:01:12.980Z,3.28
2023-04-04T00:03:47.008Z,2.78
2023-04-04T00:06:16.732Z,2.60
2023-04-04T00:08:46.970Z,4.60
2023-04-04T00:11:16.411Z,3.10
2023-04-04T00:13:45.714Z,3.38
2023-04-04T00:16:15.136Z,3.75
2023-04-04T00:18:44.329Z,3.20
2023-04-04T00:21:13.381Z,2.53
2023-04-04T00:23:42.226Z,2.97
2023-04-04T00:26:15.158Z,2.95
2023-04-04T00:28:45.077Z,2.47
2023-04-04T00:31:14.306Z,2.45
2023-04-04T00:33:46.024Z,3.13
2023-04-04T00:36:15.349Z,2.50
2023-04-04T00:38:44.416Z,2.63
2023-04-04T00:41:16.214Z,3.75
2023-04-04T00:43:46.612Z,2.90
2023-04-04T00:46:18.991Z,2.83
2023-04-04T00:48:49.626Z,2.47
2023-04-04T00:51:19.077Z,3.30
2023-04-04T00:53:49.232Z,2.65
2023-04-04T00:56:21.102Z,3.03
2023-04-04T00:58:50.646Z,2.70
2023-04-04T01:01:19.674Z,2.88
2023-04-04T01:03:49.224Z,3.45
2023-04-04T01:06:18.622Z,2.92
2023-04-04T01:08:48.820Z,3.00
2023-04-04T01:11:19.409Z,2.67
2023-04-04T01:13:49.723Z,2.60
2023-04-04T01:16:20.453Z,3.13
2023-04-04T01:18:53.533Z,2.50
2023-04-04T01:21:25.585Z,2.30
2023-04-04T01:24:01.314Z,2.67
2023-04-04T01:26:40.203Z,2.85
2023-04-04T01:29:10.062Z,2.60
2023-04-04T01:31:43.358Z,3.00
2023-04-04T01:34:22.287Z,2.67
2023-04-04T01:37:00.818Z,2.55
2023-04-04T01:39:34.774Z,2.90
2023-04-04T01:42:07.744Z,3.17
2023-04-04T01:44:37.698Z,3.17
2023-04-04T01:47:08.981Z,3.30
2023-04-04T01:49:38.865Z,3.65
2023-04-04T01:52:09.621Z,3.40
2023-04-04T01:54:39.656Z,3.33
2023-04-04T01:57:13.031Z,3.42
2023-04-04T01:59:42.350Z,3.25
2023-04-04T02:02:12.895Z,3.33
2023-04-04T02:04:42.338Z,3.75
2023-04-04T02:07:11.594Z,3.95
2023-04-04T02:09:40.893Z,4.75
2023-04-04T02:12:09.777Z,3.42
2023-04-04T02:14:41.018Z,3.63
2023-04-04T02:17:10.683Z,3.67
2023-04-04T02:19:39.917Z,3.25
2023-04-04T02:22:08.902Z,3.67
2023-04-04T02:24:38.480Z,3.75
2023-04-04T02:27:07.817Z,3.47
2023-04-04T02:29:37.431Z,3.45
2023-04-04T02:32:08.263Z,3.88
2023-04-04T02:34:39.769Z,3.80
2023-04-04T02:37:09.023Z,3.80
2023-04-04T02:39:38.005Z,3.53
2023-04-04T02:42:07.830Z,3.88
2023-04-04T02:44:37.175Z,3.88
2023-04-04T02:47:09.023Z,3.33
2023-04-04T02:49:38.517Z,4.15
2023-04-04T02:52:08.397Z,4.03
2023-04-04T02:54:42.289Z,4.20
2023-04-04T02:57:13.995Z,3.40
2023-04-04T02:59:45.575Z,3.85
2023-04-04T03:02:16.301Z,3.38
2023-04-04T03:04:45.726Z,3.80
2023-04-04T03:07:14.778Z,4.20
2023-04-04T03:09:45.439Z,3.58
2023-04-04T03:12:14.515Z,3.75
2023-04-04T03:14:44.112Z,4.00
2023-04-04T03:17:14.983Z,3.30
2023-04-04T03:19:48.655Z,3.95
2023-04-04T03:22:17.812Z,4.45
2023-04-04T03:24:49.264Z,4.47
2023-04-04T03:27:18.421Z,4.00
2023-04-04T03:29:47.892Z,3.65
2023-04-04T03:32:19.842Z,4.20
2023-04-04T03:34:50.413Z,3.55
2023-04-04T03:37:23.135Z,5.00
2023-04-04T03:39:54.581Z,3.72
2023-04-04T03:42:23.690Z,3.78
2023-04-04T03:44:57.244Z,4.25
2023-04-04T03:47:32.476Z,3.50
2023-04-04T03:50:03.608Z,4.28
2023-04-04T03:52:42.263Z,5.28
2023-04-04T03:55:13.464Z,3.97
2023-04-04T03:57:42.819Z,5.25
2023-04-04T04:00:14.528Z,4.03
2023-04-04T04:02:43.538Z,4.50
2023-04-04T04:05:14.345Z,4.38
2023-04-04T04:07:45.550Z,3.70
2023-04-04T04:10:15.266Z,4.20
2023-04-04T04:12:44.098Z,4.00
2023-04-04T04:15:13.024Z,5.53
2023-04-04T04:17:44.083Z,4.55
2023-04-04T04:20:15.711Z,5.63
2023-04-04T04:22:53.852Z,4.25
2023-04-04T04:25:23.753Z,4.07
2023-04-04T04:28:06.551Z,4.90
2023-04-04T04:30:38.214Z,4.55
2023-04-04T04:33:13.281Z,4.65
2023-04-04T04:35:55.591Z,4.28
2023-04-04T04:38:26.379Z,4.20
2023-04-04T04:40:55.408Z,5.55
2023-04-04T04:43:29.537Z,4.28
2023-04-04T04:46:01.203Z,4.63
2023-04-04T04:48:33.642Z,4.20
2023-04-04T04:51:04.446Z,4.28
2023-04-04T04:53:41.318Z,4.85
2023-04-04T04:56:10.274Z,5.07
2023-04-04T04:58:42.397Z,4.30
2023-04-04T05:01:13.052Z,4.55
2023-04-04T05:03:42.338Z,4.88
2023-04-04T05:06:17.256Z,5.57
2023-04-04T05:08:46.913Z,6.10
2023-04-04T05:11:42.127Z,4.30
2023-04-04T05:14:12.925Z,4.70
2023-04-04T05:16:49.456Z,8.80
2023-04-04T05:19:19.812Z,5.07
2023-04-04T05:21:55.113Z,4.35
2023-04-04T05:24:33.584Z,6.53
2023-04-04T05:27:03.550Z,4.38
2023-04-04T05:29:39.091Z,4.95
2023-04-04T05:32:11.111Z,4.47
2023-04-04T05:34:41.287Z,5.25
2023-04-04T05:37:17.251Z,4.45
2023-04-04T05:39:50.121Z,4.88
2023-04-04T05:42:20.403Z,5.20
2023-04-04T05:44:53.353Z,5.53
2023-04-04T05:47:22.964Z,4.97
2023-04-04T05:49:52.444Z,5.63
2023-04-04T05:52:23.128Z,5.20
2023-04-04T05:54:52.786Z,5.50
2023-04-04T05:57:29.023Z,5.43
2023-04-04T06:00:00.273Z,4.50
2023-04-04T06:02:33.014Z,5.60
2023-04-04T06:05:06.792Z,4.40
2023-04-04T06:07:40.758Z,4.45
2023-04-04T06:10:11.330Z,4.78
2023-04-04T06:12:40.422Z,4.38
2023-04-04T06:15:12.354Z,4.00
2023-04-04T06:17:43.434Z,4.43
2023-04-04T06:20:13.042Z,4.75
2023-04-04T06:22:44.186Z,4.82
2023-04-04T06:25:14.654Z,4.57
2023-04-04T06:27:44.133Z,5.05
2023-04-04T06:30:17.679Z,4.53
2023-04-04T06:32:50.722Z,6.03
2023-04-04T06:35:22.488Z,4.47
2023-04-04T06:38:00.822Z,5.15
2023-04-04T06:40:31.110Z,3.90
2023-04-04T06:43:02.658Z,3.88
2023-04-04T06:45:37.771Z,3.80
2023-04-04T06:48:08.173Z,4.57
2023-04-04T06:50:37.735Z,3.75
2023-04-04T06:53:12.311Z,4.93
2023-04-04T06:55:41.259Z,3.92
2023-04-04T06:58:10.039Z,5.45
2023-04-04T07:00:38.963Z,3.88
2023-04-04T07:03:08.085Z,3.78
2023-04-04T07:05:39.469Z,4.10
2023-04-04T07:08:08.569Z,3.60
2023-04-04T07:10:41.435Z,4.35
2023-04-04T07:13:11.119Z,3.92
2023-04-04T07:15:39.831Z,4.38
2023-04-04T07:18:09.412Z,3.70
2023-04-04T07:20:38.414Z,3.85
2023-04-04T07:23:07.286Z,5.13
2023-04-04T07:25:35.962Z,4.07
2023-04-04T07:28:12.660Z,4.20
2023-04-04T07:30:44.321Z,4.20
2023-04-04T07:33:13.187Z,4.25
2023-04-04T07:35:42.367Z,4.25
2023-04-04T07:38:11.320Z,3.33
2023-04-04T07:40:41.899Z,4.75
2023-04-04T07:43:12.192Z,4.50
2023-04-04T07:45:41.326Z,4.47
2023-04-04T07:48:10.214Z,3.78
2023-04-04T07:50:39.177Z,3.67
2023-04-04T07:53:08.227Z,3.92
2023-04-04T07:55:37.096Z,4.72
2023-04-04T07:58:07.936Z,5.05
2023-04-04T08:00:38.230Z,3.67
2023-04-04T08:03:07.159Z,3.88
2023-04-04T08:05:35.977Z,3.30
2023-04-04T08:08:04.656Z,3.42
2023-04-04T08:10:33.374Z,4.57
2023-04-04T08:13:02.191Z,3.92
2023-04-04T08:15:30.984Z,3.45
2023-04-04T08:18:03.348Z,3.08
2023-04-04T08:20:32.477Z,3.22
2023-04-04T08:23:01.410Z,3.05
2023-04-04T08:25:30.634Z,3.08
2023-04-04T08:27:59.431Z,2.58
2023-04-04T08:30:28.480Z,4.25
2023-04-04T08:32:57.522Z,3.40
2023-04-04T08:35:27.725Z,3.05
2023-04-04T08:37:57.437Z,2.25
2023-04-04T08:40:30.295Z,3.40
2023-04-04T08:43:00.772Z,2.15
2023-04-04T08:45:33.384Z,2.72
2023-04-04T08:48:04.975Z,2.45
2023-04-04T08:50:39.203Z,3.00
2023-04-04T08:53:09.880Z,2.30
2023-04-04T08:55:39.505Z,2.30
2023-04-04T08:58:08.297Z,1.88
2023-04-04T09:00:40.670Z,2.00
2023-04-04T09:03:14.900Z,2.25
2023-04-04T09:05:46.132Z,2.10
2023-04-04T09:08:15.859Z,2.13
2023-04-04T09:10:45.554Z,2.40
2023-04-04T09:13:16.503Z,2.20
2023-04-04T09:15:49.377Z,2.13
2023-04-04T09:18:19.217Z,1.98
2023-04-04T09:20:52.947Z,3.17
2023-04-04T09:23:23.821Z,2.80
2023-04-04T09:28:30.373Z,2.35
2023-04-04T09:31:01.974Z,3.20
2023-04-04T09:33:32.812Z,2.20
2023-04-04T09:36:04.694Z,2.30
2023-04-04T09:38:33.612Z,2.38
2023-04-04T09:41:02.502Z,3.00
2023-04-04T09:43:33.767Z,2.38
2023-04-04T09:46:05.526Z,2.53
2023-04-04T09:48:37.057Z,2.20
2023-04-04T09:51:08.486Z,2.78
2023-04-04T09:53:38.168Z,2.88
2023-04-04T09:56:08.133Z,2.25
2023-04-04T09:58:39.124Z,3.00
2023-04-04T10:01:15.419Z,2.47
2023-04-04T10:03:44.442Z,2.97
2023-04-04T10:06:15.413Z,2.67
2023-04-04T10:08:45.316Z,3.10
2023-04-04T10:11:14.123Z,2.22
2023-04-04T10:13:44.721Z,2.40
2023-04-04T10:16:15.448Z,2.47
2023-04-04T10:18:44.734Z,2.80
2023-04-04T10:21:16.134Z,2.63
2023-04-04T10:23:47.694Z,3.10
2023-04-04T10:26:18.735Z,2.80
2023-04-04T10:28:47.812Z,2.67
2023-04-04T10:31:21.710Z,2.33
2023-04-04T10:34:01.864Z,2.60
2023-04-04T10:36:39.624Z,2.50
2023-04-04T10:39:15.276Z,2.60
2023-04-04T10:41:47.900Z,2.13
2023-04-04T10:44:25.421Z,2.35
2023-04-04T10:46:55.589Z,2.45
2023-04-04T10:49:29.785Z,3.00
2023-04-04T10:51:59.939Z,2.58
2023-04-04T10:54:30.371Z,2.97
2023-04-04T10:57:01.594Z,2.33
2023-04-04T10:59:30.577Z,3.10
2023-04-04T11:02:00.926Z,3.17
2023-04-04T11:04:34.290Z,2.50
2023-04-04T11:07:14.703Z,2.15
2023-04-04T11:09:51.263Z,3.05
2023-04-04T11:12:28.406Z,3.05
2023-04-04T11:15:11.395Z,2.80
2023-04-04T11:17:53.087Z,2.78
2023-04-04T11:20:23.930Z,2.47
2023-04-04T11:23:04.685Z,2.58
2023-04-04T11:25:35.209Z,2.60
2023-04-04T11:28:14.865Z,2.83
2023-04-04T11:30:48.904Z,2.30
2023-04-04T11:33:31.835Z,3.30
2023-04-04T11:36:08.568Z,2.60
2023-04-04T11:38:41.408Z,2.40
2023-04-04T11:41:14.771Z,3.13
2023-04-04T11:43:46.739Z,2.88
2023-04-04T11:46:19.671Z,2.22
2023-04-04T11:48:49.440Z,2.50
2023-04-04T11:51:19.970Z,2.30
2023-04-04T11:53:50.070Z,2.83
2023-04-04T11:56:20.911Z,2.83
2023-04-04T11:59:01.589Z,2.58
2023-04-04T12:01:38.748Z,3.30
2023-04-04T12:04:08.041Z,2.40
2023-04-04T12:06:37.338Z,3.63
2023-04-04T12:09:08.777Z,2.38
2023-04-04T12:11:38.500Z,3.38
2023-04-04T12:14:07.773Z,3.35
2023-04-04T12:16:37.215Z,3.40
2023-04-04T12:19:06.130Z,2.63
2023-04-04T12:21:34.813Z,2.55
2023-04-04T12:24:03.818Z,2.88
2023-04-04T12:26:34.021Z,2.50
2023-04-04T12:29:02.863Z,2.80
2023-04-04T12:31:34.697Z,2.78
2023-04-04T12:34:03.632Z,3.25
2023-04-04T12:36:38.242Z,2.70
2023-04-04T12:39:08.964Z,2.58
2023-04-04T12:41:49.278Z,2.17
2023-04-04T12:44:29.421Z,3.67
2023-04-04T12:47:00.173Z,3.08
2023-04-04T12:49:31.090Z,2.95
2023-04-04T12:52:03.909Z,2.63
2023-04-04T12:54:35.131Z,2.60
2023-04-04T12:57:07.412Z,3.30
2023-04-04T12:59:40.050Z,2.90
2023-04-04T13:02:12.501Z,2.53
2023-04-04T13:04:43.383Z,3.00
2023-04-04T13:07:22.942Z,3.15
2023-04-04T13:09:56.559Z,3.38
2023-04-04T13:12:28.442Z,3.10
2023-04-04T13:14:59.052Z,2.72
2023-04-04T13:17:40.101Z,4.05
2023-04-04T13:20:10.143Z,3.28
2023-04-04T13:22:39.501Z,2.50
2023-04-04T13:25:10.099Z,3.33
2023-04-04T13:27:42.795Z,2.95
2023-04-04T13:32:43.211Z,3.15
2023-04-04T13:35:12.037Z,3.55
2023-04-04T13:37:43.205Z,2.90
2023-04-04T13:40:14.287Z,3.58
2023-04-04T13:42:44.478Z,3.30
2023-04-04T13:45:13.610Z,3.10
2023-04-04T13:47:42.718Z,3.30
2023-04-04T13:50:12.014Z,3.63
2023-04-04T13:52:40.839Z,3.97
2023-04-04T13:55:10.439Z,3.10
2023-04-04T13:57:39.287Z,3.53
2023-04-04T14:00:11.115Z,2.78
2023-04-04T14:02:42.421Z,3.38
2023-04-04T14:05:11.987Z,3.55
2023-04-04T14:07:40.810Z,3.05
2023-04-04T14:10:11.676Z,3.35
2023-04-04T14:12:41.372Z,3.78
2023-04-04T14:15:13.244Z,3.55
2023-04-04T14:17:42.134Z,3.95
2023-04-04T14:20:11.855Z,3.72
2023-04-04T14:22:43.186Z,3.53
2023-04-04T14:25:12.055Z,3.53
2023-04-04T14:27:40.851Z,3.30
2023-04-04T14:30:12.142Z,3.58
2023-04-04T14:32:41.009Z,3.25
2023-04-04T14:35:10.367Z,3.28
2023-04-04T14:37:39.177Z,3.38
2023-04-04T14:40:08.896Z,3.80
2023-04-04T14:42:39.408Z,3.60
2023-04-04T14:45:10.152Z,3.33
2023-04-04T14:47:43.368Z,3.70
2023-04-04T14:50:12.329Z,3.63
2023-04-04T14:52:41.299Z,3.72
2023-04-04T14:55:11.401Z,3.80
2023-04-04T14:57:57.095Z,3.20
2023-04-04T15:00:29.416Z,3.28
2023-04-04T15:03:01.068Z,2.97
2023-04-04T15:05:30.136Z,4.25
2023-04-04T15:07:58.807Z,3.63
2023-04-04T15:10:27.637Z,3.33
2023-04-04T15:12:56.437Z,3.30
2023-04-04T15:15:29.061Z,2.80
2023-04-04T15:17:59.342Z,3.47
2023-04-04T15:20:28.341Z,3.15
2023-04-04T15:22:57.145Z,3.30
2023-04-04T15:25:25.909Z,3.75
2023-04-04T15:27:56.855Z,3.08
2023-04-04T15:30:25.632Z,4.15
2023-04-04T15:32:54.633Z,3.70
2023-04-04T15:35:25.110Z,3.63
2023-04-04T15:37:53.846Z,3.53
2023-04-04T15:40:22.957Z,6.45
2023-04-04T15:42:51.907Z,8.07
2023-04-04T15:45:20.565Z,4.05
2023-04-04T15:47:49.393Z,4.13
2023-04-04T15:50:18.251Z,3.58
2023-04-04T15:52:48.452Z,3.85
2023-04-04T15:55:20.005Z,3.45
2023-04-04T15:57:50.437Z,3.65
2023-04-04T16:00:19.581Z,3.03
2023-04-04T16:02:48.448Z,4.00
2023-04-04T16:05:17.315Z,3.55
2023-04-04T16:07:46.273Z,3.60
2023-04-04T16:10:16.495Z,3.35
2023-04-04T16:12:47.591Z,3.75
2023-04-04T16:15:16.499Z,3.45
2023-04-04T16:17:45.292Z,4.55
2023-04-04T16:20:14.212Z,3.88
2023-04-04T16:22:42.931Z,3.60
2023-04-04T16:25:11.850Z,4.22
2023-04-04T16:27:44.255Z,3.83
2023-04-04T16:30:16.229Z,4.27
2023-04-04T16:32:46.656Z,3.65
2023-04-04T16:35:15.609Z,3.22
2023-04-04T16:37:44.302Z,3.17
2023-04-04T16:40:14.810Z,3.92
2023-04-04T16:42:45.928Z,3.92
2023-04-04T16:45:14.790Z,4.07
2023-04-04T16:47:43.595Z,4.85
2023-04-04T16:50:14.742Z,4.93
2023-04-04T16:52:43.450Z,4.03
2023-04-04T16:55:12.296Z,3.33
2023-04-04T16:57:41.206Z,4.18
2023-04-04T17:00:12.972Z,4.68
2023-04-04T17:02:45.624Z,3.65
2023-04-04T17:05:15.067Z,3.70
2023-04-04T17:07:46.478Z,3.80
2023-04-04T17:10:15.667Z,4.80
2023-04-04T17:12:44.654Z,4.13
2023-04-04T17:15:16.622Z,3.65
2023-04-04T17:17:47.021Z,3.30
2023-04-04T17:20:21.018Z,3.60
2023-04-04T17:22:53.952Z,3.42
2023-04-04T17:25:28.948Z,3.50
2023-04-04T17:28:00.245Z,4.10
2023-04-04T17:30:31.216Z,4.28
2023-04-04T17:33:00.120Z,3.53
2023-04-04T17:35:31.329Z,3.72
2023-04-04T17:38:00.116Z,4.30
2023-04-04T17:40:28.863Z,3.60
2023-04-04T17:42:57.671Z,3.65
2023-04-04T17:45:27.636Z,4.45
2023-04-04T17:47:58.279Z,4.07
2023-04-04T17:50:29.793Z,4.93
2023-04-04T17:53:02.030Z,4.43
2023-04-04T17:55:32.100Z,4.05
2023-04-04T17:58:00.877Z,5.22
2023-04-04T18:00:29.598Z,4.28
2023-04-04T18:03:02.052Z,4.07
2023-04-04T18:05:31.333Z,4.43
2023-04-04T18:08:04.875Z,4.35
2023-04-04T18:10:33.920Z,4.47
2023-04-04T18:13:02.665Z,4.70
2023-04-04T18:15:36.417Z,4.05
2023-04-04T18:18:12.464Z,5.35
2023-04-04T18:20:41.332Z,4.93
2023-04-04T18:23:12.440Z,4.75
2023-04-04T18:25:43.536Z,5.30
2023-04-04T18:28:12.896Z,4.47
2023-04-04T18:30:42.151Z,5.43
2023-04-04T18:33:13.437Z,5.03
2023-04-04T18:35:45.359Z,5.25
2023-04-04T18:38:14.274Z,5.10
2023-04-04T18:40:45.717Z,4.70
2023-04-04T18:43:14.760Z,5.07
2023-04-04T18:45:43.479Z,5.45
2023-04-04T18:48:13.773Z,5.07
2023-04-04T18:50:43.752Z,4.30
2023-04-04T18:53:12.647Z,4.18
2023-04-04T18:55:41.469Z,5.68
2023-04-04T18:58:10.394Z,5.90
2023-04-04T19:00:39.524Z,5.10
2023-04-04T19:03:13.550Z,4.47
2023-04-04T19:05:47.717Z,6.15
2023-04-04T19:08:17.752Z,4.10
2023-04-04T19:10:47.817Z,5.05
2023-04-04T19:13:17.294Z,4.53
2023-04-04T19:15:46.933Z,4.88
2023-04-04T19:18:19.339Z,4.57
2023-04-04T19:20:48.110Z,5.32
2023-04-04T19:23:17.139Z,5.13
2023-04-04T19:25:46.048Z,5.22
2023-04-04T19:28:15.034Z,6.35
2023-04-04T19:30:45.530Z,5.22
2023-04-04T19:33:18.144Z,5.10
2023-04-04T19:35:58.816Z,5.13
2023-04-04T19:38:29.657Z,5.00
2023-04-04T19:40:59.938Z,5.45
2023-04-04T19:43:30.027Z,5.50
2023-04-04T19:46:00.412Z,5.20
2023-04-04T19:48:44.480Z,4.72
2023-04-04T19:51:42.635Z,5.57
2023-04-04T19:54:17.761Z,5.18
2023-04-04T19:56:50.866Z,5.47
2023-04-04T20:00:06.103Z,5.38
2023-04-04T20:02:57.071Z,6.15
2023-04-04T20:05:56.509Z,6.05
2023-04-04T20:08:31.775Z,5.70
2023-04-04T20:11:00.686Z,6.07
2023-04-04T20:13:32.924Z,6.28
2023-04-04T20:16:07.010Z,22.50
2023-04-04T20:18:37.336Z,9.23
2023-04-04T20:21:12.018Z,11.02
2023-04-04T20:23:48.031Z,6.70
2023-04-04T20:26:41.860Z,6.28
2023-04-04T20:31:44.041Z,6.80
2023-04-04T20:34:34.004Z,6.43
2023-04-04T20:37:05.098Z,6.57
2023-04-04T20:39:56.115Z,6.43
2023-04-04T20:42:50.706Z,6.53
2023-04-04T20:45:44.927Z,6.75
2023-04-04T20:48:41.965Z,6.82
2023-04-04T20:51:25.932Z,6.35
2023-04-04T20:53:58.869Z,7.45
2023-04-04T20:56:57.259Z,5.90
2023-04-04T20:59:44.843Z,6.32
2023-04-04T21:02:20.106Z,6.22
2023-04-04T21:04:51.821Z,7.47
2023-04-04T21:07:40.589Z,6.57
2023-04-04T21:10:24.837Z,8.02
2023-04-04T21:12:56.362Z,6.85
2023-04-04T21:15:29.654Z,6.63
2023-04-04T21:18:02.517Z,6.63
2023-04-04T21:21:19.778Z,8.30
2023-04-04T21:23:52.628Z,7.32
2023-04-04T21:26:33.109Z,7.60
2023-04-04T21:29:06.441Z,7.32
2023-04-04T21:34:11.660Z,7.35
2023-04-04T21:36:41.659Z,8.02
2023-04-04T21:39:14.658Z,7.57
2023-04-04T21:41:46.173Z,7.50
2023-04-04T21:44:16.532Z,7.53
2023-04-04T21:46:47.981Z,7.88
2023-04-04T21:49:17.604Z,7.00
2023-04-04T21:51:46.816Z,8.48
2023-04-04T21:54:16.300Z,7.10
2023-04-04T21:56:45.620Z,7.95
2023-04-04T21:59:14.654Z,7.47
2023-04-04T22:01:45.376Z,7.40
2023-04-04T22:04:14.927Z,7.28
2023-04-04T22:06:44.069Z,8.48
2023-04-04T22:09:13.156Z,7.68
2023-04-04T22:11:45.654Z,7.68
2023-04-04T22:14:17.796Z,7.70
2023-04-04T22:16:48.999Z,8.15
2023-04-04T22:19:18.331Z,7.75
2023-04-04T22:21:49.986Z,7.53
2023-04-04T22:24:19.073Z,9.95
2023-04-04T22:26:50.701Z,7.93
2023-04-04T22:29:19.922Z,9.85
2023-04-04T22:31:50.835Z,8.60
2023-04-04T22:34:20.230Z,7.50
2023-04-04T22:36:49.484Z,8.63
2023-04-04T22:39:20.880Z,7.45
2023-04-04T22:41:52.495Z,8.43
2023-04-04T22:44:21.791Z,7.45
2023-04-04T22:46:53.022Z,7.65
2023-04-04T22:49:22.496Z,7.53
2023-04-04T22:51:55.568Z,7.32
2023-04-04T22:54:24.518Z,7.45
2023-04-04T22:56:53.666Z,7.22
2023-04-04T22:59:22.906Z,7.10
2023-04-04T23:01:53.767Z,7.78
2023-04-04T23:04:23.086Z,6.82
2023-04-04T23:06:53.427Z,8.38
2023-04-04T23:09:22.725Z,6.13
2023-04-04T23:11:51.841Z,6.63
2023-04-04T23:14:22.963Z,6.45
2023-04-04T23:16:56.997Z,5.45
2023-04-04T23:19:26.440Z,6.68
2023-04-04T23:21:55.660Z,6.15
2023-04-04T23:24:24.805Z,6.22
2023-04-04T23:26:54.183Z,6.68
2023-04-04T23:29:23.814Z,6.47
2023-04-04T23:31:57.100Z,5.25
2023-04-04T23:34:26.088Z,6.60
2023-04-04T23:36:55.943Z,5.88
2023-04-04T23:39:25.052Z,6.25
2023-04-04T23:41:54.077Z,5.90
2023-04-04T23:44:23.577Z,5.43
2023-04-04T23:46:53.000Z,6.68
2023-04-04T23:49:24.311Z,5.82
2023-04-04T23:51:53.348Z,5.57
2023-04-04T23:54:23.460Z,6.72
2023-04-04T23:56:52.740Z,5.70
2023-04-04T23:59:22.016Z,5.90
